الصفحة الرئيسية
METAR-TAF:

METAR-TAF

مطار :

مطار أوسلو-غاردرموين

أوسلو, النرويج

دائرة عرض: 60-12N, خط طول: 011-05E, ارتفاع: 208 متر

مراقبة الطقس الحالي

تاريخ ووقت الإصدار 45 دقيقة قبل الساعة 11:20UTC
ريح 7 عقدة من الجنوب, الاتجاه يتراوح بين الجنوب الشرقي و الجنوب/الجنوب الغربي
درجة الحرارة 24°درجة مئوية
الرطوبة 57%
ضغط 1014 hPa
الرؤية 10 كم أو أكثر
غيوم قليلة على ارتفاع 3600 قدم

METAR: ENGM 201120Z 17007KT 140V200 9999 FEW036 24/15 Q1014 NOSIG

زمن: 14:05 (12:05 UTC)

توقعات

تاريخ ووقت الإصدار 1ساعة و 5 دقيقة قبل الساعة 11:00UTC
التوقعات صالحة من20 الساعة 12 UTC إلى 21 الساعة 12 UTC
ريح 10 عقدة من الجنوب
الرؤية 10 كم أو أكثر
الغيوم لا تقل 1500 م ولا وجود لمزنة ركامية السحاب الأسود
أصبح
من 20 الساعة 22 UTC إلى 20 الساعة 24 UTC
ريح 3 عقدةمن اتجاهات متغيرة
أصبح
من 21 الساعة 09 UTC إلى 21 الساعة 11 UTC
ريح 10 عقدة من الجنوب

TAF: ENGM 201100Z 2012/2112 17010KT CAVOK BECMG 2022/2024 VRB03KT BECMG 2109/2111 17010KT

أرصاد الطقس والتوقعات من أكثر من 4000 مطار (تقارير الطقس للمطار METAR والتنبؤ بالطقس بالمطارTAF).

المحطات المتاحة هي النقط الصفراء والحمراء على الخريطة.

حرك المؤشر فوق النقطة لمعرفة اسم المحطة.

ثم انقر لمعرفة أرصاد وتوقعات الطقس.

لتغيير الخارطة: اضغط على الأزرار الخضراء مع رمز الصليب الأسود للتكبير. على الزر الأخضر مع شرطة للتصغير، أو على الأسهم الخضراء للخرائط المجاورة.


METAR-TAF: